LFMU/BZR METAR and TAF weather

Enter ICAO airport designator
Station Type Date Time Source
LFMU METAR 2021/05/15 02:00 UTC NOAA

LFMU 150200Z AUTO 27005KT CAVOK 13/08 Q1014


Station Type Date Time Source
LFMU Decoded METAR 2021/05/15 02:00 UTC NOAA

Beziers / Vias, France (LFMU) 43-19N 003-21E
May 14, 2021 - 10:00 PM EDT / 2021.05.15 0200 UTC
Wind: from the W (270 degrees) at 6 MPH (5 KT):0
Visibility: greater than 7 mile(s):0
Temperature: 55 F (13 C)
Dew Point: 46 F (8 C)
Relative Humidity: 71%
Pressure (altimeter): 29.94 in. Hg (1014 hPa)
ob: LFMU 150200Z AUTO 27005KT CAVOK 13/08 Q1014
cycle: 2

Station Type Date Time Source
LFMU TAF 2021/05/14 20:37 UTC NOAA

TAF LFMU 142030Z 1420/1515 CNL

Example: see airport list